MOL Modern — V7VS6 — position and weather

sailwx.info

Track history (hours):
 
Tides and Currents Weather Stations Pressure Air Temp Water Temp Dewpoint Dewpoint Depression Visibility Wind Speed Wind Dir Waves Ship Positions

MOL Modern

Last reported at 2014-Jul-30 04:31 UTC. Time now 2014-Aug-01 16:00 UTC.
Position N 22°14' E 114°08'.

Length 302 m; draft 10.2 m.

Type: Ship (hazmat cat A). MMSI: 538004203.

Date/timePositionNaut miles runAvg speedWind from/ knotsBaromVisibWave heightAir tempDewpointWater temp
2014-Jul-30 04:31N 22°14' E 114°08'6 5.2
2014-Jul-30 03:21N 22°20' E 114°08'0 0.0
2014-Jul-29 04:32N 22°20' E 114°07'16113.0
2014-Jul-28 16:09N 22°54' E 116°57'915.0
2014-Jul-28 15:33N 22°59' E 117°05'1514.7
2014-Jul-28 14:33N 23°08' E 117°17'1615.0
2014-Jul-28 13:30N 23°15' E 117°33'1614.9
2014-Jul-28 12:24N 23°24' E 117°48'1213.8
2014-Jul-28 11:33N 23°30' E 117°59'1414.2
2014-Jul-28 10:33N 23°37' E 118°12'1515.2
2014-Jul-28 09:33N 23°45' E 118°26'1615.5
2014-Jul-28 08:32N 23°55' E 118°40'1918.0
2014-Jul-28 07:29N 24°07' E 118°56'1818.8
2014-Jul-28 06:31N 24°19' E 119°11'  
Track history (hours):
 
Tides and Currents Weather Stations Pressure Air Temp Water Temp Dewpoint Dewpoint Depression Visibility Wind Speed Wind Dir Waves Ship Positions

MOL Modern

Last reported at 2014-Jul-30 04:31 UTC. Time now 2014-Aug-01 16:00 UTC.
Position N 22°14' E 114°08'.

Length 302 m; draft 10.2 m.

Type: Ship (hazmat cat A). MMSI: 538004203.

Date/timePositionNaut miles runAvg speedWind from/ knotsBaromVisibWave heightAir tempDewpointWater temp
2014-Jul-30 04:31N 22°14' E 114°08'6 5.2
2014-Jul-30 03:21N 22°20' E 114°08'0 0.0
2014-Jul-29 04:32N 22°20' E 114°07'16113.0
2014-Jul-28 16:09N 22°54' E 116°57'915.0
2014-Jul-28 15:33N 22°59' E 117°05'1514.7
2014-Jul-28 14:33N 23°08' E 117°17'1615.0
2014-Jul-28 13:30N 23°15' E 117°33'1614.9
2014-Jul-28 12:24N 23°24' E 117°48'1213.8
2014-Jul-28 11:33N 23°30' E 117°59'1414.2
2014-Jul-28 10:33N 23°37' E 118°12'1515.2
2014-Jul-28 09:33N 23°45' E 118°26'1615.5
2014-Jul-28 08:32N 23°55' E 118°40'1918.0
2014-Jul-28 07:29N 24°07' E 118°56'1818.8
2014-Jul-28 06:31N 24°19' E 119°11'  

Dump ship's entire track history